sensor_id;sensor_type;location;lat;lon;timestamp;P1;durP1;ratioP1;P2;durP2;ratioP2
24799;SDS011;12897;50.812;4.430;2022-12-16T00:00:40;83.45;;;37.15;;
24799;SDS011;12897;50.812;4.430;2022-12-16T00:03:18;66.47;;;31.57;;
24799;SDS011;12897;50.812;4.430;2022-12-16T00:08:38;72.90;;;32.85;;
24799;SDS011;12897;50.812;4.430;2022-12-16T00:11:12;64.32;;;28.27;;
24799;SDS011;12897;50.812;4.430;2022-12-16T00:13:47;64.70;;;29.65;;
24799;SDS011;12897;50.812;4.430;2022-12-16T00:18:57;61.92;;;29.00;;
24799;SDS011;12897;50.812;4.430;2022-12-16T00:21:24;59.42;;;29.20;;
24799;SDS011;12897;50.812;4.430;2022-12-16T00:23:57;63.68;;;27.98;;
24799;SDS011;12897;50.812;4.430;2022-12-16T00:26:25;61.50;;;27.17;;
24799;SDS011;12897;50.812;4.430;2022-12-16T00:28:54;61.23;;;28.20;;
24799;SDS011;12897;50.812;4.430;2022-12-16T00:31:22;57.60;;;27.73;;
24799;SDS011;12897;50.812;4.430;2022-12-16T00:33:54;61.25;;;28.17;;
24799;SDS011;12897;50.812;4.430;2022-12-16T00:36:24;57.03;;;27.62;;
24799;SDS011;12897;50.812;4.430;2022-12-16T00:38:53;58.60;;;29.42;;
24799;SDS011;12897;50.812;4.430;2022-12-16T00:41:21;63.78;;;30.90;;
24799;SDS011;12897;50.812;4.430;2022-12-16T00:43:49;65.35;;;29.57;;
24799;SDS011;12897;50.812;4.430;2022-12-16T00:46:17;60.28;;;27.95;;
24799;SDS011;12897;50.812;4.430;2022-12-16T00:48:46;67.30;;;30.02;;
24799;SDS011;12897;50.812;4.430;2022-12-16T00:53:42;66.02;;;28.67;;
24799;SDS011;12897;50.812;4.430;2022-12-16T00:58:40;60.12;;;28.87;;
24799;SDS011;12897;50.812;4.430;2022-12-16T01:01:09;64.53;;;28.83;;
24799;SDS011;12897;50.812;4.430;2022-12-16T01:03:46;61.85;;;28.73;;
24799;SDS011;12897;50.812;4.430;2022-12-16T01:06:21;58.75;;;28.45;;
24799;SDS011;12897;50.812;4.430;2022-12-16T01:11:38;60.30;;;28.27;;
24799;SDS011;12897;50.812;4.430;2022-12-16T01:14:13;58.35;;;28.23;;
24799;SDS011;12897;50.812;4.430;2022-12-16T01:22:06;58.90;;;28.55;;
24799;SDS011;12897;50.812;4.430;2022-12-16T01:24:43;63.17;;;29.57;;
24799;SDS011;12897;50.812;4.430;2022-12-16T01:27:21;62.13;;;30.57;;
24799;SDS011;12897;50.812;4.430;2022-12-16T01:29:49;58.83;;;28.45;;
24799;SDS011;12897;50.812;4.430;2022-12-16T01:32:17;58.48;;;28.52;;
24799;SDS011;12897;50.812;4.430;2022-12-16T01:34:50;57.03;;;26.75;;
24799;SDS011;12897;50.812;4.430;2022-12-16T01:37:22;64.60;;;29.65;;
24799;SDS011;12897;50.812;4.430;2022-12-16T01:39:50;56.23;;;28.98;;
24799;SDS011;12897;50.812;4.430;2022-12-16T01:42:20;53.95;;;27.20;;
24799;SDS011;12897;50.812;4.430;2022-12-16T01:47:20;59.30;;;27.77;;
24799;SDS011;12897;50.812;4.430;2022-12-16T01:49:58;58.85;;;28.20;;
24799;SDS011;12897;50.812;4.430;2022-12-16T01:52:33;62.20;;;28.47;;
24799;SDS011;12897;50.812;4.430;2022-12-16T01:55:05;62.10;;;29.75;;
24799;SDS011;12897;50.812;4.430;2022-12-16T01:57:35;56.98;;;27.62;;
24799;SDS011;12897;50.812;4.430;2022-12-16T02:00:05;59.27;;;29.10;;
24799;SDS011;12897;50.812;4.430;2022-12-16T02:02:35;58.78;;;27.67;;
24799;SDS011;12897;50.812;4.430;2022-12-16T02:05:04;59.50;;;28.15;;
24799;SDS011;12897;50.812;4.430;2022-12-16T02:07:43;60.80;;;28.12;;
24799;SDS011;12897;50.812;4.430;2022-12-16T02:10:12;64.07;;;29.23;;
24799;SDS011;12897;50.812;4.430;2022-12-16T02:12:44;54.98;;;26.85;;
24799;SDS011;12897;50.812;4.430;2022-12-16T02:17:59;55.05;;;27.87;;
24799;SDS011;12897;50.812;4.430;2022-12-16T02:34:36;55.38;;;26.70;;
24799;SDS011;12897;50.812;4.430;2022-12-16T02:37:11;50.55;;;26.05;;
24799;SDS011;12897;50.812;4.430;2022-12-16T02:39:38;56.20;;;26.73;;
24799;SDS011;12897;50.812;4.430;2022-12-16T02:44:59;52.27;;;26.30;;
24799;SDS011;12897;50.812;4.430;2022-12-16T02:53:02;53.35;;;26.52;;
24799;SDS011;12897;50.812;4.430;2022-12-16T03:01:20;52.20;;;26.82;;
24799;SDS011;12897;50.812;4.430;2022-12-16T03:06:27;53.13;;;26.97;;
24799;SDS011;12897;50.812;4.430;2022-12-16T03:08:58;53.30;;;27.85;;
24799;SDS011;12897;50.812;4.430;2022-12-16T03:11:31;58.15;;;27.95;;
24799;SDS011;12897;50.812;4.430;2022-12-16T03:13:59;56.30;;;27.02;;
24799;SDS011;12897;50.812;4.430;2022-12-16T03:16:29;56.42;;;26.93;;
24799;SDS011;12897;50.812;4.430;2022-12-16T03:19:00;61.33;;;27.00;;
24799;SDS011;12897;50.812;4.430;2022-12-16T03:21:33;53.90;;;27.93;;
24799;SDS011;12897;50.812;4.430;2022-12-16T03:24:12;56.37;;;26.05;;
24799;SDS011;12897;50.812;4.430;2022-12-16T03:26:43;54.73;;;27.00;;
24799;SDS011;12897;50.812;4.430;2022-12-16T03:29:50;56.40;;;27.77;;
24799;SDS011;12897;50.812;4.430;2022-12-16T03:32:01;54.85;;;26.00;;
24799;SDS011;12897;50.812;4.430;2022-12-16T03:34:39;58.15;;;26.65;;
24799;SDS011;12897;50.812;4.430;2022-12-16T03:37:07;54.93;;;26.70;;
24799;SDS011;12897;50.812;4.430;2022-12-16T03:39:42;51.37;;;26.25;;
24799;SDS011;12897;50.812;4.430;2022-12-16T03:42:12;52.23;;;26.68;;
24799;SDS011;12897;50.812;4.430;2022-12-16T03:44:46;56.93;;;28.40;;
24799;SDS011;12897;50.812;4.430;2022-12-16T03:47:14;54.10;;;27.75;;
24799;SDS011;12897;50.812;4.430;2022-12-16T03:49:43;53.10;;;26.62;;
24799;SDS011;12897;50.812;4.430;2022-12-16T03:52:13;56.28;;;26.97;;
24799;SDS011;12897;50.812;4.430;2022-12-16T03:54:43;47.67;;;26.57;;
24799;SDS011;12897;50.812;4.430;2022-12-16T03:57:12;54.43;;;27.63;;
24799;SDS011;12897;50.812;4.430;2022-12-16T03:59:42;55.05;;;27.00;;
24799;SDS011;12897;50.812;4.430;2022-12-16T04:02:10;58.02;;;27.98;;
24799;SDS011;12897;50.812;4.430;2022-12-16T04:04:39;55.43;;;26.65;;
24799;SDS011;12897;50.812;4.430;2022-12-16T04:07:06;61.85;;;27.95;;
24799;SDS011;12897;50.812;4.430;2022-12-16T04:09:46;55.50;;;25.88;;
24799;SDS011;12897;50.812;4.430;2022-12-16T04:12:14;53.60;;;26.30;;
24799;SDS011;12897;50.812;4.430;2022-12-16T04:15:07;52.40;;;26.93;;
24799;SDS011;12897;50.812;4.430;2022-12-16T04:17:49;63.60;;;28.67;;
24799;SDS011;12897;50.812;4.430;2022-12-16T04:20:35;59.45;;;27.62;;
24799;SDS011;12897;50.812;4.430;2022-12-16T04:23:23;71.82;;;31.17;;
24799;SDS011;12897;50.812;4.430;2022-12-16T04:26:11;80.75;;;33.20;;
24799;SDS011;12897;50.812;4.430;2022-12-16T04:28:39;72.78;;;32.63;;
24799;SDS011;12897;50.812;4.430;2022-12-16T04:31:06;76.37;;;33.67;;
24799;SDS011;12897;50.812;4.430;2022-12-16T04:33:34;77.35;;;33.78;;
24799;SDS011;12897;50.812;4.430;2022-12-16T04:36:20;91.25;;;35.68;;
24799;SDS011;12897;50.812;4.430;2022-12-16T04:39:06;88.60;;;36.20;;
24799;SDS011;12897;50.812;4.430;2022-12-16T04:41:52;81.15;;;35.33;;
24799;SDS011;12897;50.812;4.430;2022-12-16T04:44:38;80.53;;;35.43;;
24799;SDS011;12897;50.812;4.430;2022-12-16T04:47:28;86.32;;;36.40;;
24799;SDS011;12897;50.812;4.430;2022-12-16T04:50:11;89.95;;;36.75;;
24799;SDS011;12897;50.812;4.430;2022-12-16T04:52:58;88.40;;;35.65;;
24799;SDS011;12897;50.812;4.430;2022-12-16T04:55:43;82.55;;;36.10;;
24799;SDS011;12897;50.812;4.430;2022-12-16T04:58:29;86.30;;;36.20;;
24799;SDS011;12897;50.812;4.430;2022-12-16T05:01:15;80.57;;;35.20;;
24799;SDS011;12897;50.812;4.430;2022-12-16T05:04:01;89.32;;;37.60;;
24799;SDS011;12897;50.812;4.430;2022-12-16T05:06:48;87.95;;;35.60;;
24799;SDS011;12897;50.812;4.430;2022-12-16T05:09:17;80.15;;;36.48;;
24799;SDS011;12897;50.812;4.430;2022-12-16T05:12:04;89.00;;;38.65;;
24799;SDS011;12897;50.812;4.430;2022-12-16T05:14:49;94.15;;;37.28;;
24799;SDS011;12897;50.812;4.430;2022-12-16T05:17:35;89.40;;;36.48;;
24799;SDS011;12897;50.812;4.430;2022-12-16T05:20:23;84.00;;;36.63;;
24799;SDS011;12897;50.812;4.430;2022-12-16T05:23:09;85.85;;;37.08;;
24799;SDS011;12897;50.812;4.430;2022-12-16T05:25:54;92.53;;;36.58;;
24799;SDS011;12897;50.812;4.430;2022-12-16T05:28:40;92.00;;;37.38;;
24799;SDS011;12897;50.812;4.430;2022-12-16T05:31:25;92.85;;;38.70;;
24799;SDS011;12897;50.812;4.430;2022-12-16T05:34:11;90.25;;;37.67;;
24799;SDS011;12897;50.812;4.430;2022-12-16T05:36:59;94.62;;;40.38;;
24799;SDS011;12897;50.812;4.430;2022-12-16T05:39:45;83.52;;;35.92;;
24799;SDS011;12897;50.812;4.430;2022-12-16T05:42:30;80.10;;;33.40;;
24799;SDS011;12897;50.812;4.430;2022-12-16T05:45:16;89.83;;;36.63;;
24799;SDS011;12897;50.812;4.430;2022-12-16T05:48:04;86.70;;;35.43;;
24799;SDS011;12897;50.812;4.430;2022-12-16T05:50:49;87.12;;;34.63;;
24799;SDS011;12897;50.812;4.430;2022-12-16T05:53:35;85.83;;;35.28;;
24799;SDS011;12897;50.812;4.430;2022-12-16T05:56:21;80.07;;;34.50;;
24799;SDS011;12897;50.812;4.430;2022-12-16T05:59:07;79.22;;;35.03;;
24799;SDS011;12897;50.812;4.430;2022-12-16T06:01:53;78.45;;;34.98;;
24799;SDS011;12897;50.812;4.430;2022-12-16T06:04:38;77.25;;;32.03;;
24799;SDS011;12897;50.812;4.430;2022-12-16T06:07:23;80.53;;;35.03;;
24799;SDS011;12897;50.812;4.430;2022-12-16T06:10:09;80.97;;;35.38;;
24799;SDS011;12897;50.812;4.430;2022-12-16T06:12:54;72.25;;;33.63;;
24799;SDS011;12897;50.812;4.430;2022-12-16T06:15:40;89.65;;;34.65;;
24799;SDS011;12897;50.812;4.430;2022-12-16T06:18:25;75.05;;;33.55;;
24799;SDS011;12897;50.812;4.430;2022-12-16T06:20:56;77.47;;;32.17;;
24799;SDS011;12897;50.812;4.430;2022-12-16T06:23:43;71.90;;;32.40;;
24799;SDS011;12897;50.812;4.430;2022-12-16T06:26:29;69.60;;;33.15;;
24799;SDS011;12897;50.812;4.430;2022-12-16T06:29:16;82.60;;;34.08;;
24799;SDS011;12897;50.812;4.430;2022-12-16T06:32:02;73.05;;;33.13;;
24799;SDS011;12897;50.812;4.430;2022-12-16T06:34:47;85.50;;;34.38;;
24799;SDS011;12897;50.812;4.430;2022-12-16T06:37:35;64.45;;;29.30;;
24799;SDS011;12897;50.812;4.430;2022-12-16T06:40:26;66.95;;;29.75;;
24799;SDS011;12897;50.812;4.430;2022-12-16T06:43:08;69.55;;;31.35;;
24799;SDS011;12897;50.812;4.430;2022-12-16T06:45:53;73.00;;;30.85;;
24799;SDS011;12897;50.812;4.430;2022-12-16T06:48:39;81.37;;;31.07;;
24799;SDS011;12897;50.812;4.430;2022-12-16T06:51:25;70.22;;;31.37;;
24799;SDS011;12897;50.812;4.430;2022-12-16T06:54:12;66.30;;;29.48;;
24799;SDS011;12897;50.812;4.430;2022-12-16T06:56:57;59.18;;;28.52;;
24799;SDS011;12897;50.812;4.430;2022-12-16T06:59:43;56.88;;;29.57;;
24799;SDS011;12897;50.812;4.430;2022-12-16T07:02:29;65.57;;;28.57;;
24799;SDS011;12897;50.812;4.430;2022-12-16T07:05:14;59.83;;;29.25;;
24799;SDS011;12897;50.812;4.430;2022-12-16T07:08:00;59.48;;;28.95;;
24799;SDS011;12897;50.812;4.430;2022-12-16T07:10:48;56.37;;;27.13;;
24799;SDS011;12897;50.812;4.430;2022-12-16T07:13:34;56.85;;;27.90;;
24799;SDS011;12897;50.812;4.430;2022-12-16T07:16:20;57.45;;;27.80;;
24799;SDS011;12897;50.812;4.430;2022-12-16T07:19:06;57.67;;;28.95;;
24799;SDS011;12897;50.812;4.430;2022-12-16T07:21:51;54.13;;;26.37;;
24799;SDS011;12897;50.812;4.430;2022-12-16T07:24:37;54.85;;;28.32;;
24799;SDS011;12897;50.812;4.430;2022-12-16T07:27:24;52.43;;;26.57;;
24799;SDS011;12897;50.812;4.430;2022-12-16T07:29:59;57.65;;;27.60;;
24799;SDS011;12897;50.812;4.430;2022-12-16T07:32:47;56.77;;;27.82;;
24799;SDS011;12897;50.812;4.430;2022-12-16T07:35:33;59.85;;;28.27;;
24799;SDS011;12897;50.812;4.430;2022-12-16T07:38:19;57.20;;;28.20;;
24799;SDS011;12897;50.812;4.430;2022-12-16T07:41:05;53.52;;;25.70;;
24799;SDS011;12897;50.812;4.430;2022-12-16T07:43:51;57.05;;;25.88;;
24799;SDS011;12897;50.812;4.430;2022-12-16T07:46:37;54.77;;;26.15;;
24799;SDS011;12897;50.812;4.430;2022-12-16T07:49:23;49.45;;;26.97;;
24799;SDS011;12897;50.812;4.430;2022-12-16T07:52:10;49.38;;;23.92;;
24799;SDS011;12897;50.812;4.430;2022-12-16T07:54:55;61.73;;;26.37;;
24799;SDS011;12897;50.812;4.430;2022-12-16T07:57:47;47.67;;;26.07;;
24799;SDS011;12897;50.812;4.430;2022-12-16T08:00:33;49.48;;;24.77;;
24799;SDS011;12897;50.812;4.430;2022-12-16T08:03:20;55.43;;;27.15;;
24799;SDS011;12897;50.812;4.430;2022-12-16T08:06:05;60.15;;;27.50;;
24799;SDS011;12897;50.812;4.430;2022-12-16T08:08:51;53.70;;;25.32;;
24799;SDS011;12897;50.812;4.430;2022-12-16T08:11:37;57.05;;;26.23;;
24799;SDS011;12897;50.812;4.430;2022-12-16T08:17:18;52.75;;;24.10;;
24799;SDS011;12897;50.812;4.430;2022-12-16T08:20:03;55.25;;;27.02;;
24799;SDS011;12897;50.812;4.430;2022-12-16T08:22:53;55.83;;;25.50;;
24799;SDS011;12897;50.812;4.430;2022-12-16T08:25:39;62.23;;;28.87;;
24799;SDS011;12897;50.812;4.430;2022-12-16T08:28:25;63.95;;;27.75;;
24799;SDS011;12897;50.812;4.430;2022-12-16T08:31:11;61.88;;;29.05;;
24799;SDS011;12897;50.812;4.430;2022-12-16T08:34:00;69.62;;;28.90;;
24799;SDS011;12897;50.812;4.430;2022-12-16T08:36:45;59.60;;;27.82;;
24799;SDS011;12897;50.812;4.430;2022-12-16T08:39:39;58.15;;;27.82;;
24799;SDS011;12897;50.812;4.430;2022-12-16T08:42:29;55.23;;;27.02;;
24799;SDS011;12897;50.812;4.430;2022-12-16T08:45:13;57.08;;;28.50;;
24799;SDS011;12897;50.812;4.430;2022-12-16T08:48:00;62.25;;;27.27;;
24799;SDS011;12897;50.812;4.430;2022-12-16T08:50:52;59.83;;;27.93;;
24799;SDS011;12897;50.812;4.430;2022-12-16T08:53:38;62.62;;;29.52;;
24799;SDS011;12897;50.812;4.430;2022-12-16T08:56:24;62.83;;;28.27;;
24799;SDS011;12897;50.812;4.430;2022-12-16T08:59:08;62.48;;;28.80;;
24799;SDS011;12897;50.812;4.430;2022-12-16T09:01:50;60.23;;;28.65;;
24799;SDS011;12897;50.812;4.430;2022-12-16T09:04:36;58.85;;;27.73;;
24799;SDS011;12897;50.812;4.430;2022-12-16T09:07:25;56.58;;;26.25;;
24799;SDS011;12897;50.812;4.430;2022-12-16T09:10:17;61.33;;;27.20;;
24799;SDS011;12897;50.812;4.430;2022-12-16T09:13:10;59.30;;;27.58;;
24799;SDS011;12897;50.812;4.430;2022-12-16T09:16:02;60.70;;;28.07;;
24799;SDS011;12897;50.812;4.430;2022-12-16T09:18:44;59.38;;;27.32;;
24799;SDS011;12897;50.812;4.430;2022-12-16T09:21:32;64.27;;;29.05;;
24799;SDS011;12897;50.812;4.430;2022-12-16T09:24:34;62.25;;;29.63;;
24799;SDS011;12897;50.812;4.430;2022-12-16T09:27:21;61.30;;;28.98;;
24799;SDS011;12897;50.812;4.430;2022-12-16T09:30:08;60.85;;;28.87;;
24799;SDS011;12897;50.812;4.430;2022-12-16T09:32:57;66.25;;;29.60;;
24799;SDS011;12897;50.812;4.430;2022-12-16T09:35:43;59.13;;;27.55;;
24799;SDS011;12897;50.812;4.430;2022-12-16T09:38:29;59.10;;;27.93;;
24799;SDS011;12897;50.812;4.430;2022-12-16T09:41:19;61.77;;;28.55;;
24799;SDS011;12897;50.812;4.430;2022-12-16T09:44:12;58.05;;;27.00;;
24799;SDS011;12897;50.812;4.430;2022-12-16T09:46:58;48.08;;;24.10;;
24799;SDS011;12897;50.812;4.430;2022-12-16T09:49:47;50.25;;;24.77;;
24799;SDS011;12897;50.812;4.430;2022-12-16T09:52:39;62.48;;;25.70;;
24799;SDS011;12897;50.812;4.430;2022-12-16T09:58:19;59.55;;;26.10;;
24799;SDS011;12897;50.812;4.430;2022-12-16T10:01:11;47.88;;;23.27;;
24799;SDS011;12897;50.812;4.430;2022-12-16T10:03:58;55.73;;;25.65;;
24799;SDS011;12897;50.812;4.430;2022-12-16T10:06:45;51.48;;;24.50;;
24799;SDS011;12897;50.812;4.430;2022-12-16T10:15:28;47.65;;;23.90;;
24799;SDS011;12897;50.812;4.430;2022-12-16T10:21:22;45.63;;;23.90;;
24799;SDS011;12897;50.812;4.430;2022-12-16T10:24:25;49.30;;;24.67;;
24799;SDS011;12897;50.812;4.430;2022-12-16T10:27:00;51.68;;;24.12;;
24799;SDS011;12897;50.812;4.430;2022-12-16T10:29:48;54.30;;;25.68;;
24799;SDS011;12897;50.812;4.430;2022-12-16T10:32:41;54.48;;;23.85;;
24799;SDS011;12897;50.812;4.430;2022-12-16T10:35:50;46.98;;;23.73;;
24799;SDS011;12897;50.812;4.430;2022-12-16T10:38:22;49.63;;;23.98;;
24799;SDS011;12897;50.812;4.430;2022-12-16T10:41:16;56.53;;;26.45;;
24799;SDS011;12897;50.812;4.430;2022-12-16T10:44:04;51.63;;;25.27;;
24799;SDS011;12897;50.812;4.430;2022-12-16T10:46:51;53.28;;;25.60;;
24799;SDS011;12897;50.812;4.430;2022-12-16T10:49:36;51.85;;;25.65;;
24799;SDS011;12897;50.812;4.430;2022-12-16T10:52:22;52.83;;;27.87;;
24799;SDS011;12897;50.812;4.430;2022-12-16T11:01:42;49.20;;;25.25;;
24799;SDS011;12897;50.812;4.430;2022-12-16T11:04:29;49.00;;;25.35;;
24799;SDS011;12897;50.812;4.430;2022-12-16T11:07:26;53.95;;;26.68;;
24799;SDS011;12897;50.812;4.430;2022-12-16T11:10:24;51.20;;;24.30;;
24799;SDS011;12897;50.812;4.430;2022-12-16T11:13:34;43.63;;;24.52;;
24799;SDS011;12897;50.812;4.430;2022-12-16T11:16:28;53.78;;;25.05;;
24799;SDS011;12897;50.812;4.430;2022-12-16T11:19:27;53.78;;;26.45;;
24799;SDS011;12897;50.812;4.430;2022-12-16T11:22:15;60.38;;;26.60;;
24799;SDS011;12897;50.812;4.430;2022-12-16T11:25:06;57.95;;;27.37;;
24799;SDS011;12897;50.812;4.430;2022-12-16T11:28:03;58.65;;;26.37;;
24799;SDS011;12897;50.812;4.430;2022-12-16T11:30:55;65.80;;;27.32;;
24799;SDS011;12897;50.812;4.430;2022-12-16T11:33:43;62.75;;;29.20;;
24799;SDS011;12897;50.812;4.430;2022-12-16T11:36:30;62.38;;;28.45;;
24799;SDS011;12897;50.812;4.430;2022-12-16T11:39:24;63.15;;;28.75;;
24799;SDS011;12897;50.812;4.430;2022-12-16T11:42:25;62.88;;;30.02;;
24799;SDS011;12897;50.812;4.430;2022-12-16T11:45:13;57.03;;;27.02;;
24799;SDS011;12897;50.812;4.430;2022-12-16T11:51:10;60.15;;;28.20;;
24799;SDS011;12897;50.812;4.430;2022-12-16T11:54:49;64.30;;;28.67;;
24799;SDS011;12897;50.812;4.430;2022-12-16T11:56:55;60.12;;;28.90;;
24799;SDS011;12897;50.812;4.430;2022-12-16T11:59:50;57.30;;;28.10;;
24799;SDS011;12897;50.812;4.430;2022-12-16T12:12:14;52.40;;;25.57;;
24799;SDS011;12897;50.812;4.430;2022-12-16T12:18:00;57.67;;;26.60;;
24799;SDS011;12897;50.812;4.430;2022-12-16T12:26:32;59.38;;;27.22;;
24799;SDS011;12897;50.812;4.430;2022-12-16T12:35:51;56.28;;;26.82;;
24799;SDS011;12897;50.812;4.430;2022-12-16T12:38:47;51.90;;;25.50;;
24799;SDS011;12897;50.812;4.430;2022-12-16T12:41:45;55.30;;;25.88;;
24799;SDS011;12897;50.812;4.430;2022-12-16T12:47:38;45.98;;;22.52;;
24799;SDS011;12897;50.812;4.430;2022-12-16T12:50:18;47.75;;;22.67;;
24799;SDS011;12897;50.812;4.430;2022-12-16T12:53:13;47.00;;;22.45;;
24799;SDS011;12897;50.812;4.430;2022-12-16T12:59:11;43.42;;;20.68;;
24799;SDS011;12897;50.812;4.430;2022-12-16T13:02:09;35.45;;;17.40;;
24799;SDS011;12897;50.812;4.430;2022-12-16T13:04:57;39.47;;;19.27;;
24799;SDS011;12897;50.812;4.430;2022-12-16T13:07:43;38.75;;;17.87;;
24799;SDS011;12897;50.812;4.430;2022-12-16T13:10:31;41.28;;;18.20;;
24799;SDS011;12897;50.812;4.430;2022-12-16T13:16:18;46.13;;;18.85;;
24799;SDS011;12897;50.812;4.430;2022-12-16T13:22:28;40.05;;;17.12;;
24799;SDS011;12897;50.812;4.430;2022-12-16T13:25:42;35.65;;;15.40;;
24799;SDS011;12897;50.812;4.430;2022-12-16T13:28:23;36.58;;;15.95;;
24799;SDS011;12897;50.812;4.430;2022-12-16T13:31:10;33.02;;;13.35;;
24799;SDS011;12897;50.812;4.430;2022-12-16T13:34:02;29.35;;;14.38;;
24799;SDS011;12897;50.812;4.430;2022-12-16T13:36:44;36.48;;;14.05;;
24799;SDS011;12897;50.812;4.430;2022-12-16T13:39:31;30.48;;;14.07;;
24799;SDS011;12897;50.812;4.430;2022-12-16T13:42:32;33.23;;;13.93;;
24799;SDS011;12897;50.812;4.430;2022-12-16T13:45:32;31.07;;;12.68;;
24799;SDS011;12897;50.812;4.430;2022-12-16T13:48:40;30.80;;;14.15;;
24799;SDS011;12897;50.812;4.430;2022-12-16T13:54:30;32.45;;;13.95;;
24799;SDS011;12897;50.812;4.430;2022-12-16T13:57:21;26.17;;;12.40;;
24799;SDS011;12897;50.812;4.430;2022-12-16T14:00:18;23.15;;;10.63;;
24799;SDS011;12897;50.812;4.430;2022-12-16T14:03:07;32.10;;;10.48;;
24799;SDS011;12897;50.812;4.430;2022-12-16T14:05:57;28.10;;;10.80;;
24799;SDS011;12897;50.812;4.430;2022-12-16T14:08:44;25.57;;;11.80;;
24799;SDS011;12897;50.812;4.430;2022-12-16T14:11:49;25.70;;;10.90;;
24799;SDS011;12897;50.812;4.430;2022-12-16T14:14:38;21.50;;;11.40;;
24799;SDS011;12897;50.812;4.430;2022-12-16T14:17:34;30.25;;;12.13;;
24799;SDS011;12897;50.812;4.430;2022-12-16T14:20:22;26.00;;;12.00;;
24799;SDS011;12897;50.812;4.430;2022-12-16T14:23:58;28.65;;;12.70;;
24799;SDS011;12897;50.812;4.430;2022-12-16T14:26:12;34.18;;;12.70;;
24799;SDS011;12897;50.812;4.430;2022-12-16T14:28:59;29.67;;;13.13;;
24799;SDS011;12897;50.812;4.430;2022-12-16T14:31:53;29.18;;;13.70;;
24799;SDS011;12897;50.812;4.430;2022-12-16T14:34:39;33.67;;;13.22;;
24799;SDS011;12897;50.812;4.430;2022-12-16T14:37:35;30.17;;;13.65;;
24799;SDS011;12897;50.812;4.430;2022-12-16T14:40:22;38.08;;;13.28;;
24799;SDS011;12897;50.812;4.430;2022-12-16T14:43:19;32.53;;;13.22;;
24799;SDS011;12897;50.812;4.430;2022-12-16T14:52:16;30.75;;;14.65;;
24799;SDS011;12897;50.812;4.430;2022-12-16T14:55:13;30.27;;;13.68;;
24799;SDS011;12897;50.812;4.430;2022-12-16T15:00:48;31.02;;;14.30;;
24799;SDS011;12897;50.812;4.430;2022-12-16T15:03:36;35.17;;;13.75;;
24799;SDS011;12897;50.812;4.430;2022-12-16T15:06:28;32.20;;;14.07;;
24799;SDS011;12897;50.812;4.430;2022-12-16T15:09:22;30.10;;;14.60;;
24799;SDS011;12897;50.812;4.430;2022-12-16T15:12:05;32.70;;;14.75;;
24799;SDS011;12897;50.812;4.430;2022-12-16T15:14:53;40.25;;;17.12;;
24799;SDS011;12897;50.812;4.430;2022-12-16T15:17:51;36.50;;;17.90;;
24799;SDS011;12897;50.812;4.430;2022-12-16T15:20:45;51.98;;;22.13;;
24799;SDS011;12897;50.812;4.430;2022-12-16T15:23:37;92.92;;;39.10;;
24799;SDS011;12897;50.812;4.430;2022-12-16T15:26:24;80.47;;;37.23;;
24799;SDS011;12897;50.812;4.430;2022-12-16T15:35:22;44.98;;;21.20;;
24799;SDS011;12897;50.812;4.430;2022-12-16T15:44:18;211.68;;;87.30;;
24799;SDS011;12897;50.812;4.430;2022-12-16T15:47:51;103.75;;;42.40;;
24799;SDS011;12897;50.812;4.430;2022-12-16T15:50:13;110.75;;;43.83;;
24799;SDS011;12897;50.812;4.430;2022-12-16T15:59:29;55.33;;;25.45;;
24799;SDS011;12897;50.812;4.430;2022-12-16T16:08:09;52.38;;;20.45;;
24799;SDS011;12897;50.812;4.430;2022-12-16T16:10:55;42.58;;;18.52;;
24799;SDS011;12897;50.812;4.430;2022-12-16T16:13:42;46.00;;;19.10;;
24799;SDS011;12897;50.812;4.430;2022-12-16T16:16:28;71.87;;;26.55;;
24799;SDS011;12897;50.812;4.430;2022-12-16T16:19:21;94.03;;;33.02;;
24799;SDS011;12897;50.812;4.430;2022-12-16T16:22:10;117.45;;;43.58;;
24799;SDS011;12897;50.812;4.430;2022-12-16T16:24:57;65.42;;;26.42;;
24799;SDS011;12897;50.812;4.430;2022-12-16T16:27:42;74.12;;;27.73;;
24799;SDS011;12897;50.812;4.430;2022-12-16T16:30:28;46.63;;;21.07;;
24799;SDS011;12897;50.812;4.430;2022-12-16T16:33:15;47.35;;;21.12;;
24799;SDS011;12897;50.812;4.430;2022-12-16T16:36:05;46.25;;;20.77;;
24799;SDS011;12897;50.812;4.430;2022-12-16T16:38:56;36.60;;;17.73;;
24799;SDS011;12897;50.812;4.430;2022-12-16T16:44:46;39.25;;;16.85;;
24799;SDS011;12897;50.812;4.430;2022-12-16T16:47:31;38.60;;;16.42;;
24799;SDS011;12897;50.812;4.430;2022-12-16T16:50:17;40.05;;;16.02;;
24799;SDS011;12897;50.812;4.430;2022-12-16T16:53:02;40.98;;;18.17;;
24799;SDS011;12897;50.812;4.430;2022-12-16T16:55:50;48.02;;;19.73;;
24799;SDS011;12897;50.812;4.430;2022-12-16T16:58:36;55.95;;;24.60;;
24799;SDS011;12897;50.812;4.430;2022-12-16T17:01:24;77.12;;;32.65;;
24799;SDS011;12897;50.812;4.430;2022-12-16T17:04:09;99.67;;;41.53;;
24799;SDS011;12897;50.812;4.430;2022-12-16T17:06:55;60.15;;;26.80;;
24799;SDS011;12897;50.812;4.430;2022-12-16T17:09:41;45.95;;;22.67;;
24799;SDS011;12897;50.812;4.430;2022-12-16T17:12:27;48.28;;;21.57;;
24799;SDS011;12897;50.812;4.430;2022-12-16T17:15:15;44.30;;;19.40;;
24799;SDS011;12897;50.812;4.430;2022-12-16T17:18:05;57.15;;;23.75;;
24799;SDS011;12897;50.812;4.430;2022-12-16T17:20:52;56.45;;;26.55;;
24799;SDS011;12897;50.812;4.430;2022-12-16T17:23:39;49.65;;;21.20;;
24799;SDS011;12897;50.812;4.430;2022-12-16T17:26:25;50.70;;;20.72;;
24799;SDS011;12897;50.812;4.430;2022-12-16T17:29:18;53.23;;;22.20;;
24799;SDS011;12897;50.812;4.430;2022-12-16T17:32:06;55.63;;;23.55;;
24799;SDS011;12897;50.812;4.430;2022-12-16T17:34:53;53.33;;;23.27;;
24799;SDS011;12897;50.812;4.430;2022-12-16T17:37:38;53.35;;;23.80;;
24799;SDS011;12897;50.812;4.430;2022-12-16T17:40:24;71.57;;;31.80;;
24799;SDS011;12897;50.812;4.430;2022-12-16T17:43:09;59.67;;;25.62;;
24799;SDS011;12897;50.812;4.430;2022-12-16T17:46:04;93.15;;;35.78;;
24799;SDS011;12897;50.812;4.430;2022-12-16T17:48:53;94.87;;;37.30;;
24799;SDS011;12897;50.812;4.430;2022-12-16T17:51:40;66.67;;;27.97;;
24799;SDS011;12897;50.812;4.430;2022-12-16T17:54:27;56.05;;;23.25;;
24799;SDS011;12897;50.812;4.430;2022-12-16T17:57:12;53.42;;;23.85;;
24799;SDS011;12897;50.812;4.430;2022-12-16T17:59:58;61.73;;;25.32;;
24799;SDS011;12897;50.812;4.430;2022-12-16T18:02:43;59.80;;;26.97;;
24799;SDS011;12897;50.812;4.430;2022-12-16T18:05:29;86.35;;;35.10;;
24799;SDS011;12897;50.812;4.430;2022-12-16T18:08:15;87.90;;;33.45;;
24799;SDS011;12897;50.812;4.430;2022-12-16T18:11:00;63.90;;;26.20;;
24799;SDS011;12897;50.812;4.430;2022-12-16T18:13:45;62.27;;;26.77;;
24799;SDS011;12897;50.812;4.430;2022-12-16T18:16:32;124.27;;;46.02;;
24799;SDS011;12897;50.812;4.430;2022-12-16T18:19:19;137.00;;;49.33;;
24799;SDS011;12897;50.812;4.430;2022-12-16T18:22:04;183.40;;;51.98;;
24799;SDS011;12897;50.812;4.430;2022-12-16T18:24:50;116.55;;;37.60;;
24799;SDS011;12897;50.812;4.430;2022-12-16T18:27:36;175.05;;;52.65;;
24799;SDS011;12897;50.812;4.430;2022-12-16T18:30:21;200.43;;;58.52;;
24799;SDS011;12897;50.812;4.430;2022-12-16T18:33:10;209.43;;;56.65;;
24799;SDS011;12897;50.812;4.430;2022-12-16T18:35:56;99.85;;;35.13;;